Strona główna
METAR-TAF:

METAR-TAF

Lotnisko :

Port lotniczy Curaçao

Curaçao, Antyle Holenderskie

Szerokość geograficzna: 12-12N, Długość geograficzna: 068-58W, wysokość: 9 m

Aktualna obserwacja pogody

Raport powstał 1 godzina i 5 minut temu, godzina 22:00 UTC
Wiatr 13 kt od wschód
Temperatura 27°C
Wilgotność 74%
Ciśnienie 1014 hPa
Widzialność 10 km lub więcej
Mało chmury na wysokości 2100 ft

METAR: TNCC 172200Z 09013KT 9999 FEW021 27/22 Q1014 NOSIG

czas: 19:05 (23:05 UTC)

Prognoza

Raport powstał 5 godziny i 50 minut temu, godzina 17:15 UTC
Prognoza ważna od 17 godzina 18 UTC do 18 godzina 18 UTC
Wiatr 15 kt od wschód
Widzialność 10 km lub więcej
Rozproszone chmury na wysokości 2400 ft

TAF: TNCC 171715Z 1718/1818 09015KT 9999 SCT024

Obserwacja i prognoza pogody dla ponad 4000 lotnisk (raport METAR i TAF).

Dostępne stacje oznaczono żółtymi i czerwonymi punktami na mapie.

Najedź kursorem aby zobaczyć nazwę stacji.

Kliknij aby zobaczyć obserwacje i prognozy pogody.

Aby zmienić mapę: kliknij na zielony przycisk z czarnym krzyżykiem, aby powiększyć; na zielony przycisk z myślnikiem, aby pomniejszyć; na zielone strzałki, aby przejść do map sąsiednich.


METAR-TAF: